Rechercher aéroport 
image banner adimage banner ad
image banner ad

FYKM - Katima Mulilo

Situé à Katima Mulilo, Namibia

ICAO - FYKM, IATA - MPA

Données fournies par Airmate  

Information générale

Coordonnées: S17°38'3" E24°10'36"
Élévation : 3144 feet MSL.
 
Voir autres Aéroports à Caprivi

Données opérationnelles

Accessible au public
Heure actuelle UTC:
Heure actuelle locale:
Météo
METAR: FYKM 230500Z AUTO 07006KT //// // ////// 24/11 Q1020
TAF: TAF FYKM 230200Z 2303/2312 11006KT CAVOK
Voir NOTAMs / SUP AIP / TFR affectant cet aéroport [VIEW]
Fréquences de communication: [VIEW]

Pistes:

Identifiant RWYQFULongueur (ft)Largeur (ft)SurfaceLDA (ft)
0980°7520128ASP
27260°752069

Coordonnées de l'aéroport

Adresse: Katima Mulilo Namibia

Vue satellite de FYKM